Riga International Airport

Airport
ICAO code: 
EVRA
IATA Code: 
RIX
Summary
ICAO Region: 
EUR
Territory: 
Location: 
Skulte, Mārupe Municipality
Serving: 
Riga
Elevation: 
36 ft
Coordinates: 
Aerial View: 
56° 55' 24.996" N, 23° 58' 15.996" E
Metar
Observation
EVRA 191720Z 35005KT CAVOK 16/07 Q1017 NOSIG
Station
Riga International Airport
Date/Time
2022-05-19 17:20:00
Wind direction
350°
Wind speed
05 kts
Lowest cloud amount
clouds and visibility OK
Temperature
16°C
Dew point
7°C
Humidity
55%
QNH
1017 hPa
Weather condition
n/a

International airport serving capital of Latvia.

Climatology

Humid Continental climate (Köppen climate classification Dfb)

Runways

Designator Length Width Surface Rops
18/36 3200 45 ASP Yes/Yes
Airport map: 
Aerial View: 

SKYbrary Partners:

Safety knowledge contributed by: